createdAt,value
2022-11-05T00:03:00.268Z,84.25
2022-11-05T00:08:24.366Z,84.32
2022-11-05T00:13:47.543Z,84.42
2022-11-05T00:19:06.806Z,84.59
2022-11-05T00:24:29.185Z,84.53
2022-11-05T00:29:32.599Z,84.58
2022-11-05T00:34:36.123Z,84.34
2022-11-05T00:39:39.527Z,84.49
2022-11-05T00:45:01.286Z,84.58
2022-11-05T00:50:05.194Z,84.53
2022-11-05T00:55:08.917Z,84.70
2022-11-05T01:00:12.945Z,84.57
2022-11-05T01:05:16.562Z,84.77
2022-11-05T01:10:20.670Z,84.66
2022-11-05T01:15:24.105Z,84.56
2022-11-05T01:20:27.421Z,84.69
2022-11-05T01:25:30.832Z,84.65
2022-11-05T01:30:34.143Z,84.73
2022-11-05T01:35:39.498Z,85.19
2022-11-05T01:40:43.427Z,85.14
2022-11-05T01:45:51.412Z,85.54
2022-11-05T01:51:12.161Z,85.44
2022-11-05T01:56:23.360Z,85.71
2022-11-05T02:01:27.926Z,85.75
2022-11-05T02:06:35.511Z,85.83
2022-11-05T02:11:39.127Z,85.92
2022-11-05T02:17:00.566Z,85.90
2022-11-05T02:22:25.685Z,85.80
2022-11-05T02:27:59.819Z,86.63
2022-11-05T02:33:22.278Z,86.40
2022-11-05T02:38:25.591Z,86.14
2022-11-05T02:43:41.702Z,86.31
2022-11-05T02:48:59.474Z,86.28
2022-11-05T02:54:10.852Z,86.36
2022-11-05T02:59:14.468Z,86.47
2022-11-05T03:04:21.982Z,86.58
2022-11-05T03:09:31.229Z,86.75
2022-11-05T03:14:52.769Z,86.95
2022-11-05T03:20:18.094Z,86.84
2022-11-05T03:25:24.530Z,87.00
2022-11-05T03:30:27.789Z,86.97
2022-11-05T03:35:37.959Z,86.93
2022-11-05T03:40:43.111Z,87.23
2022-11-05T03:46:09.978Z,87.08
2022-11-05T03:51:25.882Z,87.03
2022-11-05T03:56:40.706Z,87.14
2022-11-05T04:01:44.778Z,87.46
2022-11-05T04:07:06.634Z,87.77
2022-11-05T04:12:30.029Z,87.78
2022-11-05T04:17:33.432Z,87.82
2022-11-05T04:22:55.888Z,87.90
2022-11-05T04:28:00.949Z,87.93
2022-11-05T04:33:15.729Z,88.23
2022-11-05T04:38:20.364Z,88.21
2022-11-05T04:43:24.208Z,88.45
2022-11-05T04:48:27.600Z,88.53
2022-11-05T04:53:31.746Z,88.71
2022-11-05T04:58:39.567Z,89.06
2022-11-05T05:03:43.165Z,88.96
2022-11-05T05:08:51.071Z,89.03
2022-11-05T05:13:54.390Z,89.23
2022-11-05T05:18:57.704Z,89.13
2022-11-05T05:24:01.319Z,89.59
2022-11-05T05:29:06.100Z,89.61
2022-11-05T05:34:12.278Z,89.56
2022-11-05T05:39:15.556Z,89.66
2022-11-05T05:44:19.275Z,89.90
2022-11-05T05:49:22.688Z,89.74
2022-11-05T05:54:31.744Z,89.94
2022-11-05T05:59:36.272Z,90.19
2022-11-05T06:04:39.695Z,90.15
2022-11-05T06:09:43.098Z,90.14
2022-11-05T06:14:46.410Z,90.20
2022-11-05T06:19:49.927Z,90.27
2022-11-05T06:24:53.339Z,90.59
2022-11-05T06:29:56.751Z,90.66
2022-11-05T06:35:00.266Z,90.39
2022-11-05T06:40:03.885Z,90.58
2022-11-05T06:45:08.231Z,90.71
2022-11-05T06:50:11.941Z,90.67
2022-11-05T06:55:15.458Z,90.54
2022-11-05T07:00:19.484Z,90.73
2022-11-05T07:05:23.890Z,90.72
2022-11-05T07:10:27.231Z,90.85
2022-11-05T07:15:30.749Z,90.87
2022-11-05T07:20:34.648Z,90.90
2022-11-05T07:25:39.113Z,90.85
2022-11-05T07:30:42.417Z,90.82
2022-11-05T07:35:45.830Z,90.85
2022-11-05T07:40:49.145Z,90.90
2022-11-05T07:45:52.553Z,90.89
2022-11-05T07:50:55.968Z,90.83
2022-11-05T07:55:59.482Z,90.81
2022-11-05T08:01:03.297Z,91.04
2022-11-05T08:06:06.822Z,90.96
2022-11-05T08:11:12.443Z,91.03
2022-11-05T08:16:16.517Z,90.95
2022-11-05T08:21:20.140Z,90.99
2022-11-05T08:26:23.447Z,90.92
2022-11-05T08:31:28.086Z,91.21
2022-11-05T08:36:31.399Z,91.27
2022-11-05T08:41:34.814Z,91.48
2022-11-05T08:46:41.512Z,91.47
2022-11-05T08:51:45.327Z,91.35
2022-11-05T08:56:48.944Z,91.04
2022-11-05T09:01:53.471Z,91.41
2022-11-05T09:06:56.897Z,91.37
2022-11-05T09:12:15.622Z,91.50
2022-11-05T09:17:20.989Z,91.75
2022-11-05T09:22:24.235Z,91.70
2022-11-05T09:27:27.646Z,91.70
2022-11-05T09:32:32.494Z,91.69
2022-11-05T09:37:37.551Z,91.91
2022-11-05T09:42:46.956Z,91.94
2022-11-05T09:47:54.403Z,91.72
2022-11-05T09:52:58.743Z,91.77
2022-11-05T09:58:04.001Z,91.97
2022-11-05T10:03:13.788Z,92.06
2022-11-05T10:08:22.602Z,91.85
2022-11-05T10:13:33.799Z,91.99
2022-11-05T10:18:41.510Z,91.90
2022-11-05T10:23:48.404Z,91.43
2022-11-05T10:28:51.926Z,91.98
2022-11-05T10:34:02.740Z,91.98
2022-11-05T10:39:15.027Z,91.92
2022-11-05T10:44:45.443Z,92.06
2022-11-05T10:50:06.931Z,92.16
2022-11-05T10:55:24.460Z,92.12
2022-11-05T11:00:28.688Z,92.09
2022-11-05T11:05:39.780Z,92.15
2022-11-05T11:10:59.120Z,92.27
2022-11-05T11:16:24.292Z,91.94
2022-11-05T11:21:29.585Z,91.85
2022-11-05T11:26:37.674Z,91.70
2022-11-05T11:31:42.211Z,92.07
2022-11-05T11:36:48.495Z,92.12
2022-11-05T11:41:58.952Z,92.22
2022-11-05T11:47:08.834Z,91.87
2022-11-05T11:52:16.036Z,91.95
2022-11-05T11:57:29.587Z,91.98
2022-11-05T12:03:01.350Z,91.75
2022-11-05T12:08:23.011Z,91.70
2022-11-05T12:13:34.611Z,91.72
2022-11-05T12:18:56.251Z,91.82
2022-11-05T12:24:08.777Z,91.59
2022-11-05T12:29:51.210Z,91.57
2022-11-05T12:35:35.989Z,91.16
2022-11-05T12:40:57.323Z,91.65
2022-11-05T12:46:25.721Z,91.76
2022-11-05T12:51:41.115Z,91.88
2022-11-05T12:57:04.394Z,91.95
2022-11-05T13:02:14.068Z,91.80
2022-11-05T13:07:24.534Z,91.63
2022-11-05T13:12:32.662Z,91.19
2022-11-05T13:18:15.187Z,91.42
2022-11-05T13:23:28.738Z,91.63
2022-11-05T13:28:44.033Z,91.76
2022-11-05T13:33:50.879Z,91.88
2022-11-05T13:39:09.498Z,91.59
2022-11-05T13:44:43.423Z,91.68
2022-11-05T13:49:52.466Z,92.02
2022-11-05T13:55:15.544Z,92.02
2022-11-05T14:00:28.887Z,92.17
2022-11-05T14:05:35.063Z,91.93
2022-11-05T14:10:57.010Z,92.13
2022-11-05T14:16:07.802Z,92.24
2022-11-05T14:21:26.475Z,92.29
2022-11-05T14:26:34.493Z,92.28
2022-11-05T14:32:08.446Z,92.48
2022-11-05T14:37:12.971Z,92.11
2022-11-05T14:42:22.410Z,92.35
2022-11-05T14:47:29.570Z,92.36
2022-11-05T14:52:33.742Z,92.45
2022-11-05T14:57:42.894Z,92.38
2022-11-05T15:03:01.601Z,92.29
2022-11-05T15:08:24.945Z,92.50
2022-11-05T15:13:36.856Z,92.39
2022-11-05T15:18:47.504Z,92.70
2022-11-05T15:23:56.626Z,92.80
2022-11-05T15:29:01.841Z,92.86
2022-11-05T15:34:16.833Z,93.24
2022-11-05T15:39:29.780Z,93.01
2022-11-05T15:44:40.064Z,93.24
2022-11-05T15:49:47.034Z,93.36
2022-11-05T15:55:15.127Z,93.25
2022-11-05T16:00:26.939Z,93.61
2022-11-05T16:05:33.934Z,93.74
2022-11-05T16:10:39.092Z,93.79
2022-11-05T16:15:54.201Z,93.60
2022-11-05T16:21:09.670Z,93.66
2022-11-05T16:31:57.799Z,93.85
2022-11-05T16:37:01.281Z,93.85
2022-11-05T16:42:22.719Z,93.98
2022-11-05T16:47:26.746Z,93.99
2022-11-05T16:52:30.154Z,94.01
2022-11-05T16:57:33.675Z,94.12
2022-11-05T17:02:37.142Z,94.28
2022-11-05T17:07:41.628Z,94.28
2022-11-05T17:12:45.344Z,94.32
2022-11-05T17:17:49.784Z,94.39
2022-11-05T17:22:53.403Z,94.35
2022-11-05T17:27:57.535Z,94.44
2022-11-05T17:33:00.778Z,94.44
2022-11-05T17:38:04.151Z,94.52
2022-11-05T17:43:07.773Z,94.64
2022-11-05T17:48:12.104Z,94.64
2022-11-05T17:53:16.167Z,94.67
2022-11-05T17:58:19.443Z,94.80
2022-11-05T18:03:22.751Z,94.68
2022-11-05T18:08:26.780Z,94.78
2022-11-05T18:13:29.989Z,94.75
2022-11-05T18:18:33.521Z,95.10
2022-11-05T18:23:36.713Z,95.12
2022-11-05T18:28:40.643Z,95.00
2022-11-05T18:33:44.359Z,95.13
2022-11-05T18:38:48.486Z,94.99
2022-11-05T18:43:52.212Z,95.12
2022-11-05T18:48:55.419Z,95.15
2022-11-05T18:53:59.954Z,95.18
2022-11-05T18:59:34.566Z,95.12
2022-11-05T19:04:27.378Z,95.40
2022-11-05T19:09:30.882Z,95.63
2022-11-05T19:14:35.784Z,95.77
2022-11-05T19:19:39.179Z,95.86
2022-11-05T19:24:42.536Z,96.04
2022-11-05T19:29:47.036Z,96.03
2022-11-05T19:34:50.713Z,96.12
2022-11-05T19:39:54.759Z,96.28
2022-11-05T19:45:06.832Z,96.54
2022-11-05T19:50:20.341Z,96.37
2022-11-05T20:02:37.095Z,96.66
2022-11-05T20:07:41.308Z,96.54
2022-11-05T20:12:48.926Z,96.74
2022-11-05T20:17:53.805Z,96.88
2022-11-05T20:22:57.902Z,96.83
2022-11-05T20:28:01.210Z,96.78
2022-11-05T20:33:04.621Z,96.91
2022-11-05T20:38:11.104Z,97.03
2022-11-05T20:43:15.032Z,96.89
2022-11-05T20:48:18.444Z,96.95
2022-11-05T20:53:22.575Z,96.95
2022-11-05T20:58:25.885Z,96.81
2022-11-05T21:03:29.710Z,97.03
2022-11-05T21:08:33.746Z,96.93
2022-11-05T21:13:37.455Z,96.69
2022-11-05T21:18:40.972Z,96.86
2022-11-05T21:23:45.035Z,96.86
2022-11-05T21:28:48.412Z,96.74
2022-11-05T21:33:55.123Z,96.53
2022-11-05T21:38:58.932Z,96.86
2022-11-05T21:44:04.488Z,96.63
2022-11-05T21:49:08.022Z,96.61
2022-11-05T21:54:30.565Z,96.66
2022-11-05T21:59:49.240Z,96.69
2022-11-05T22:04:55.089Z,97.01
2022-11-05T22:09:58.827Z,97.00
2022-11-05T22:15:02.550Z,96.69
2022-11-05T22:20:06.882Z,96.51
2022-11-05T22:25:10.193Z,96.61
2022-11-05T22:30:14.819Z,96.78
2022-11-05T22:35:18.046Z,96.53
2022-11-05T22:40:24.021Z,96.83
2022-11-05T22:45:27.737Z,96.58
2022-11-05T22:50:31.048Z,96.50
2022-11-05T22:55:39.886Z,96.45
2022-11-05T23:00:43.302Z,96.32
2022-11-05T23:05:46.716Z,96.37
2022-11-05T23:11:08.868Z,95.94
2022-11-05T23:16:31.224Z,95.96
2022-11-05T23:21:52.967Z,95.99
2022-11-05T23:26:58.120Z,96.58
2022-11-05T23:32:20.477Z,96.47
2022-11-05T23:37:45.192Z,96.36
2022-11-05T23:43:07.649Z,96.51
2022-11-05T23:48:37.789Z,96.65
2022-11-05T23:53:41.719Z,96.44
2022-11-05T23:58:44.925Z,96.42
